Time;durP1;ratioP1;P1;durP2;ratioP2;P2;SDS_P1;SDS_P2;PMS_P1;PMS_P2;Temp;Humidity;BMP_temperature;BMP_pressure;BME280_temperature;BME280_humidity;BME280_pressure;Samples;Min_cycle;Max_cycle;Signal;HPM_P1;HPM_P2
2024/01/09 00:00:31;;;;;;;;;;;;;;;-8.97;49.58;96567.75;5000803;28;20338;-79
2024/01/09 00:02:56;;;;;;;;;;;;;;;-9.14;50.74;96573.28;5014017;28;19939;-78
2024/01/09 00:05:22;;;;;;;;;;;;;;;-9.14;51.83;96567.28;5006039;28;20031;-78
2024/01/09 00:07:47;;;;;;;;;;;;;;;-9.19;49.55;96562.22;5005349;28;20162;-78
2024/01/09 00:10:12;;;;;;;;;;;;;;;-9.10;49.86;96563.75;5003740;28;19943;-79
2024/01/09 00:12:37;;;;;;;;;;;;;;;-9.01;51.32;96566.13;5021098;28;19977;-78
2024/01/09 00:15:04;;;;;;;;;;;;;;;-9.01;53.83;96576.44;5023727;28;20051;-79
2024/01/09 00:17:29;;;;;;;;;;;;;;;-9.04;54.58;96580.84;5022944;28;20029;-79
2024/01/09 00:19:54;;;;;;;;;;;;;;;-8.98;56.71;96573.81;5023277;28;20095;-78
2024/01/09 00:22:20;;;;;;;;;;;;;;;-8.94;57.23;96570.28;5018470;28;19955;-79
2024/01/09 00:24:45;;;;;;;;;;;;;;;-8.97;54.78;96575.50;5016125;28;20086;-79
2024/01/09 00:27:10;;;;;;;;;;;;;;;-8.92;54.53;96566.81;5013040;28;19988;-78
2024/01/09 00:29:35;;;;;;;;;;;;;;;-8.74;57.96;96562.97;4998262;28;19944;-78
2024/01/09 00:32:01;;;;;;;;;;;;;;;-8.89;57.34;96567.59;4997816;28;20284;-78
2024/01/09 00:34:26;;;;;;;;;;;;;;;-9.09;52.58;96555.13;4992461;28;19961;-79
2024/01/09 00:36:51;;;;;;;;;;;;;;;-9.15;50.13;96556.09;4997826;28;19968;-79
2024/01/09 00:39:17;;;;;;;;;;;;;;;-9.23;53.19;96553.69;4997595;28;19964;-79
2024/01/09 00:41:42;;;;;;;;;;;;;;;-9.13;53.68;96558.66;4996612;28;19973;-79
2024/01/09 00:44:07;;;;;;;;;;;;;;;-9.12;49.29;96550.03;4996542;28;20332;-78
2024/01/09 00:46:32;;;;;;;;;;;;;;;-9.00;52.78;96561.81;4995757;28;20204;-78
2024/01/09 00:48:58;;;;;;;;;;;;;;;-9.05;55.98;96553.34;4991671;28;20256;-79
2024/01/09 00:51:23;;;;;;;;;;;;;;;-9.12;53.21;96553.47;4995713;28;19967;-79
2024/01/09 00:53:48;;;;;;;;;;;;;;;-9.04;51.02;96555.03;4995209;28;19946;-79
2024/01/09 00:56:13;;;;;;;;;;;;;;;-9.09;55.07;96562.84;4995113;28;19991;-78
2024/01/09 00:58:39;;;;;;;;;;;;;;;-9.09;51.80;96553.41;4994666;28;19961;-78
2024/01/09 01:01:04;;;;;;;;;;;;;;;-9.05;50.28;96559.34;4996519;28;20116;-78
2024/01/09 01:03:29;;;;;;;;;;;;;;;-9.15;51.29;96561.25;4997579;28;19986;-79
2024/01/09 01:05:54;;;;;;;;;;;;;;;-9.14;52.17;96559.53;4997381;28;19981;-80
2024/01/09 01:08:21;;;;;;;;;;;;;;;-9.05;49.71;96559.34;4994656;28;20000;-78
2024/01/09 01:10:46;;;;;;;;;;;;;;;-9.27;49.83;96559.81;4978522;28;20094;-80
2024/01/09 01:13:11;;;;;;;;;;;;;;;-9.11;50.85;96562.06;4995238;28;19966;-79
2024/01/09 01:15:37;;;;;;;;;;;;;;;-9.11;54.96;96568.06;4995440;28;19987;-79
2024/01/09 01:18:02;;;;;;;;;;;;;;;-9.18;48.27;96568.22;4995950;28;19941;-79
2024/01/09 01:20:27;;;;;;;;;;;;;;;-9.02;54.32;96564.44;4996857;28;20219;-78
2024/01/09 01:22:53;;;;;;;;;;;;;;;-8.98;53.09;96566.06;4994905;28;19946;-79
2024/01/09 01:25:18;;;;;;;;;;;;;;;-9.15;52.66;96566.41;4996681;28;20413;-80
2024/01/09 01:27:43;;;;;;;;;;;;;;;-9.27;61.79;96567.53;4994074;28;19959;-80
2024/01/09 01:30:08;;;;;;;;;;;;;;;-9.22;52.82;96576.03;4994743;28;19939;-78
2024/01/09 01:32:33;;;;;;;;;;;;;;;-9.20;48.12;96566.50;4995933;28;20599;-78
2024/01/09 01:34:59;;;;;;;;;;;;;;;-9.16;50.10;96563.88;4975178;28;19963;-78
2024/01/09 01:37:24;;;;;;;;;;;;;;;-9.20;51.46;96576.81;4997367;28;19963;-78
2024/01/09 01:39:49;;;;;;;;;;;;;;;-9.17;51.59;96568.19;4994913;28;20342;-78
2024/01/09 01:42:15;;;;;;;;;;;;;;;-9.03;51.42;96570.47;4995412;28;19930;-78
2024/01/09 01:44:40;;;;;;;;;;;;;;;-8.97;53.65;96574.66;4999805;28;20390;-78
2024/01/09 01:47:05;;;;;;;;;;;;;;;-8.92;54.77;96571.97;4996912;28;20041;-79
2024/01/09 01:49:30;;;;;;;;;;;;;;;-9.08;51.78;96574.88;4996318;28;20250;-79
2024/01/09 01:51:55;;;;;;;;;;;;;;;-8.96;52.77;96566.88;4995765;28;19925;-79
2024/01/09 01:54:21;;;;;;;;;;;;;;;-9.04;50.84;96562.78;4993587;28;20463;-79
2024/01/09 01:56:47;;;;;;;;;;;;;;;-9.12;47.12;96556.03;4996210;28;20296;-77
2024/01/09 01:59:13;;;;;;;;;;;;;;;-8.98;50.64;96568.66;4994710;28;19922;-78
2024/01/09 02:01:39;;;;;;;;;;;;;;;-9.01;52.40;96567.88;4991135;28;20408;-78
2024/01/09 02:04:04;;;;;;;;;;;;;;;-9.12;54.39;96565.50;4996707;28;19969;-78
2024/01/09 02:06:29;;;;;;;;;;;;;;;-9.20;48.66;96563.09;4994213;28;19979;-79
2024/01/09 02:08:55;;;;;;;;;;;;;;;-8.98;51.95;96555.75;4995800;28;20003;-78
2024/01/09 02:11:20;;;;;;;;;;;;;;;-9.18;45.87;96561.31;4994187;28;20053;-78
2024/01/09 02:13:45;;;;;;;;;;;;;;;-9.02;52.95;96567.00;4996737;28;20002;-78
2024/01/09 02:16:10;;;;;;;;;;;;;;;-9.04;51.98;96570.50;4993415;28;19978;-79
2024/01/09 02:18:36;;;;;;;;;;;;;;;-9.26;45.81;96564.06;4997350;28;19940;-79
2024/01/09 02:21:01;;;;;;;;;;;;;;;-9.20;49.51;96568.25;4995412;28;19925;-79
2024/01/09 02:23:26;;;;;;;;;;;;;;;-9.02;48.04;96566.16;4995763;28;20000;-78
2024/01/09 02:25:52;;;;;;;;;;;;;;;-8.85;53.67;96565.78;4994393;28;19939;-78
2024/01/09 02:28:23;;;;;;;;;;;;;;;-8.85;52.00;96561.47;4995766;28;20034;-80
2024/01/09 02:30:49;;;;;;;;;;;;;;;-8.94;52.44;96565.09;4994337;28;19937;-78
2024/01/09 02:33:14;;;;;;;;;;;;;;;-8.98;51.93;96563.47;4993950;28;19932;-79
2024/01/09 02:35:39;;;;;;;;;;;;;;;-9.02;52.40;96566.16;4994546;28;20240;-78
2024/01/09 02:38:05;;;;;;;;;;;;;;;-9.10;52.03;96564.59;4995228;28;20062;-78
2024/01/09 02:40:30;;;;;;;;;;;;;;;-9.10;50.42;96563.75;4995258;28;20339;-79
2024/01/09 02:42:55;;;;;;;;;;;;;;;-9.07;50.03;96563.69;5000622;28;19945;-78
2024/01/09 02:45:21;;;;;;;;;;;;;;;-9.35;47.16;96559.09;5000640;28;19940;-78
2024/01/09 02:47:46;;;;;;;;;;;;;;;-9.57;44.96;96561.25;5001330;28;20005;-77
2024/01/09 02:50:11;;;;;;;;;;;;;;;-9.34;47.13;96553.06;5001646;28;19964;-77
2024/01/09 02:52:36;;;;;;;;;;;;;;;-9.37;47.61;96555.69;5001082;28;20162;-78
2024/01/09 02:55:02;;;;;;;;;;;;;;;-9.28;50.03;96552.91;5004333;28;19999;-77
2024/01/09 02:57:27;;;;;;;;;;;;;;;-9.21;48.08;96541.59;4996205;28;19921;-78
2024/01/09 02:59:52;;;;;;;;;;;;;;;-9.23;48.53;96548.53;5006426;28;19981;-78
2024/01/09 03:02:17;;;;;;;;;;;;;;;-9.21;49.66;96544.19;5001589;28;19943;-78
2024/01/09 03:04:43;;;;;;;;;;;;;;;-9.24;48.39;96551.16;5000959;28;19927;-78
2024/01/09 03:07:08;;;;;;;;;;;;;;;-9.36;48.98;96536.75;5000916;28;19987;-78
2024/01/09 03:09:33;;;;;;;;;;;;;;;-9.38;45.61;96533.38;5002490;28;19936;-77
2024/01/09 03:11:59;;;;;;;;;;;;;;;-9.42;46.10;96547.22;5003757;28;19959;-78
2024/01/09 03:14:24;;;;;;;;;;;;;;;-9.49;51.03;96547.34;5002868;28;20423;-78
2024/01/09 03:16:49;;;;;;;;;;;;;;;-9.49;47.92;96544.75;5006915;28;20051;-79
2024/01/09 03:19:14;;;;;;;;;;;;;;;-9.58;45.65;96542.38;5004205;28;19965;-78
2024/01/09 03:21:40;;;;;;;;;;;;;;;-9.66;46.83;96533.94;5001237;28;19964;-79
2024/01/09 03:24:05;;;;;;;;;;;;;;;-9.56;43.82;96540.59;5001895;28;20311;-78
2024/01/09 03:26:30;;;;;;;;;;;;;;;-9.44;46.85;96542.09;5002455;28;19941;-78
2024/01/09 03:28:55;;;;;;;;;;;;;;;-9.54;47.25;96543.16;5003045;28;19958;-78
2024/01/09 03:31:21;;;;;;;;;;;;;;;-9.31;49.10;96536.66;5002094;28;19961;-78
2024/01/09 03:33:47;;;;;;;;;;;;;;;-9.33;49.02;96532.41;5000242;28;19935;-78
2024/01/09 03:36:12;;;;;;;;;;;;;;;-9.36;46.50;96535.03;4987610;28;20214;-77
2024/01/09 03:38:38;;;;;;;;;;;;;;;-9.46;48.88;96538.69;5004667;28;19983;-78
2024/01/09 03:41:03;;;;;;;;;;;;;;;-9.56;47.18;96538.00;5004134;28;19956;-78
2024/01/09 03:43:28;;;;;;;;;;;;;;;-9.53;48.20;96535.38;5003145;28;20447;-78
2024/01/09 03:45:54;;;;;;;;;;;;;;;-9.51;49.47;96527.63;4999368;28;20286;-78
2024/01/09 03:48:20;;;;;;;;;;;;;;;-9.51;50.30;96531.03;5005385;28;19992;-78
2024/01/09 03:50:45;;;;;;;;;;;;;;;-9.66;45.89;96521.88;5003266;28;19991;-76
2024/01/09 03:53:10;;;;;;;;;;;;;;;-9.62;49.64;96520.09;5002728;28;19946;-77
2024/01/09 03:55:35;;;;;;;;;;;;;;;-9.85;46.78;96526.56;5004573;28;19961;-78
2024/01/09 03:58:01;;;;;;;;;;;;;;;-10.01;46.25;96532.00;4999326;28;20441;-78
2024/01/09 04:00:26;;;;;;;;;;;;;;;-10.04;47.35;96524.31;5004743;28;20433;-77
2024/01/09 04:02:51;;;;;;;;;;;;;;;-10.10;48.81;96524.41;5003140;28;20064;-77
2024/01/09 04:05:16;;;;;;;;;;;;;;;-9.90;46.67;96520.63;5003941;28;19937;-77
2024/01/09 04:07:42;;;;;;;;;;;;;;;-9.77;49.08;96509.22;5003511;28;19957;-77
2024/01/09 04:10:07;;;;;;;;;;;;;;;-9.92;49.89;96530.94;5004851;28;20001;-77
2024/01/09 04:12:33;;;;;;;;;;;;;;;-10.00;44.71;96531.09;5003966;28;20056;-76
2024/01/09 04:14:58;;;;;;;;;;;;;;;-10.03;46.78;96527.75;4988939;28;20003;-77
2024/01/09 04:17:23;;;;;;;;;;;;;;;-9.95;46.52;96522.44;5004662;28;19949;-77
2024/01/09 04:19:48;;;;;;;;;;;;;;;-9.78;47.84;96520.41;4996162;28;19979;-77
2024/01/09 04:22:13;;;;;;;;;;;;;;;-9.71;46.67;96521.97;5001852;28;19945;-79
2024/01/09 04:24:39;;;;;;;;;;;;;;;-9.53;48.59;96525.06;5004482;28;20118;-77
2024/01/09 04:27:04;;;;;;;;;;;;;;;-9.72;46.14;96525.44;5003985;28;19964;-77
2024/01/09 04:29:29;;;;;;;;;;;;;;;-9.66;48.46;96519.31;5004159;28;19966;-77
2024/01/09 04:31:54;;;;;;;;;;;;;;;-9.68;48.51;96517.63;5004867;28;20150;-77
2024/01/09 04:34:20;;;;;;;;;;;;;;;-9.65;49.69;96520.16;5002119;28;19943;-78
2024/01/09 04:36:45;;;;;;;;;;;;;;;-9.71;46.65;96514.22;5004361;28;20070;-76
2024/01/09 04:39:11;;;;;;;;;;;;;;;-9.78;45.29;96519.53;5004354;28;19929;-77
2024/01/09 04:41:36;;;;;;;;;;;;;;;-9.69;47.91;96521.94;5005205;28;19981;-78
2024/01/09 04:44:01;;;;;;;;;;;;;;;-9.68;46.69;96525.38;5014562;28;19953;-77
2024/01/09 04:46:26;;;;;;;;;;;;;;;-9.58;47.52;96526.91;5025103;28;20290;-77
2024/01/09 04:48:52;;;;;;;;;;;;;;;-9.37;45.26;96525.63;5023295;28;19952;-77
2024/01/09 04:51:17;;;;;;;;;;;;;;;-9.41;51.39;96531.72;5023675;28;20538;-78
2024/01/09 04:53:42;;;;;;;;;;;;;;;-9.31;49.58;96523.78;5023813;28;20027;-78
2024/01/09 04:56:08;;;;;;;;;;;;;;;-9.43;45.79;96530.03;5024026;28;20008;-77
2024/01/09 04:58:34;;;;;;;;;;;;;;;-9.41;48.55;96523.97;5024522;28;19956;-78
2024/01/09 05:00:59;;;;;;;;;;;;;;;-9.34;47.58;96516.94;5018984;28;19961;-77
2024/01/09 05:03:24;;;;;;;;;;;;;;;-9.32;44.70;96517.75;5028564;28;19960;-78
2024/01/09 05:05:49;;;;;;;;;;;;;;;-9.36;48.08;96524.72;5024540;28;20009;-76
2024/01/09 05:08:15;;;;;;;;;;;;;;;-9.36;49.43;96513.53;5024707;28;19959;-78
2024/01/09 05:10:40;;;;;;;;;;;;;;;-9.10;48.53;96517.31;5027277;28;20139;-76
2024/01/09 05:13:06;;;;;;;;;;;;;;;-9.08;47.53;96515.53;5023752;28;20205;-77
2024/01/09 05:15:31;;;;;;;;;;;;;;;-9.36;45.29;96513.53;5025151;28;20046;-77
2024/01/09 05:17:56;;;;;;;;;;;;;;;-9.23;44.95;96516.72;5021714;28;20547;-77
2024/01/09 05:20:22;;;;;;;;;;;;;;;-9.32;43.37;96515.16;5023615;28;20376;-79
2024/01/09 05:22:47;;;;;;;;;;;;;;;-9.18;45.84;96519.22;5023588;28;19981;-77
2024/01/09 05:25:12;;;;;;;;;;;;;;;-9.33;44.59;96513.47;5030750;28;19928;-76
2024/01/09 05:27:37;;;;;;;;;;;;;;;-9.40;42.16;96520.50;5016828;28;19969;-78
2024/01/09 05:30:03;;;;;;;;;;;;;;;-9.36;41.74;96519.56;4997615;28;19960;-77
2024/01/09 05:32:28;;;;;;;;;;;;;;;-9.37;45.77;96517.00;5016837;28;19959;-78
2024/01/09 05:34:54;;;;;;;;;;;;;;;-9.38;45.27;96521.31;5022651;28;19933;-78
2024/01/09 05:37:19;;;;;;;;;;;;;;;-9.63;45.21;96514.09;5021334;28;19963;-78
2024/01/09 05:39:47;;;;;;;;;;;;;;;-9.44;44.84;96523.19;5013284;28;19968;-76
2024/01/09 05:42:12;;;;;;;;;;;;;;;-9.56;43.65;96513.97;5003755;28;20175;-76
2024/01/09 05:44:38;;;;;;;;;;;;;;;-9.45;47.80;96527.47;5002139;28;19954;-78
2024/01/09 05:47:03;;;;;;;;;;;;;;;-9.38;48.38;96517.91;5002370;28;19988;-78
2024/01/09 05:49:28;;;;;;;;;;;;;;;-9.43;46.62;96514.53;5002113;28;19980;-77
2024/01/09 05:51:54;;;;;;;;;;;;;;;-9.47;45.02;96509.47;5002281;28;20080;-78
2024/01/09 05:54:19;;;;;;;;;;;;;;;-9.30;46.29;96516.00;5003676;28;19992;-77
2024/01/09 05:56:44;;;;;;;;;;;;;;;-9.33;43.64;96516.06;5002617;28;20024;-76
2024/01/09 05:59:09;;;;;;;;;;;;;;;-9.28;45.33;96511.66;5001203;28;20146;-78
2024/01/09 06:01:35;;;;;;;;;;;;;;;-9.35;46.42;96522.97;5002662;28;19991;-78
2024/01/09 06:04:00;;;;;;;;;;;;;;;-9.56;43.64;96514.81;5002247;28;20123;-77
2024/01/09 06:06:25;;;;;;;;;;;;;;;-9.48;43.60;96519.81;5003071;28;20432;-77
2024/01/09 06:08:50;;;;;;;;;;;;;;;-9.26;46.46;96517.63;5002824;28;19961;-78
2024/01/09 06:11:16;;;;;;;;;;;;;;;-9.52;43.20;96519.03;5002488;28;19955;-76
2024/01/09 06:13:41;;;;;;;;;;;;;;;-9.60;43.16;96514.03;5001950;28;20344;-76
2024/01/09 06:16:07;;;;;;;;;;;;;;;-9.40;45.84;96520.50;5006052;28;19959;-77
2024/01/09 06:18:33;;;;;;;;;;;;;;;-9.67;42.31;96519.31;5011896;28;20406;-77
2024/01/09 06:20:58;;;;;;;;;;;;;;;-9.46;42.92;96521.47;5000672;28;19955;-78
2024/01/09 06:23:23;;;;;;;;;;;;;;;-9.52;42.93;96516.44;5002733;28;19961;-77
2024/01/09 06:25:49;;;;;;;;;;;;;;;-9.51;43.97;96525.88;5002918;28;19925;-78
2024/01/09 06:28:14;;;;;;;;;;;;;;;-9.46;42.22;96521.47;5002422;28;20310;-77
2024/01/09 06:30:39;;;;;;;;;;;;;;;-9.36;45.52;96524.72;5002660;28;19921;-77
2024/01/09 06:33:04;;;;;;;;;;;;;;;-9.43;43.54;96515.41;5015613;28;20298;-77
2024/01/09 06:35:30;;;;;;;;;;;;;;;-9.43;41.17;96519.72;5007483;28;20272;-78
2024/01/09 06:37:55;;;;;;;;;;;;;;;-9.36;43.25;96521.28;5004096;28;20048;-76
2024/01/09 06:40:20;;;;;;;;;;;;;;;-9.28;43.08;96527.13;5016763;28;20400;-77
2024/01/09 06:42:46;;;;;;;;;;;;;;;-9.35;42.31;96525.56;5022449;28;19933;-77
2024/01/09 06:45:12;;;;;;;;;;;;;;;-9.28;43.24;96521.13;5020466;28;19987;-77
2024/01/09 06:47:37;;;;;;;;;;;;;;;-9.39;40.43;96511.03;5022074;28;19972;-77
2024/01/09 06:50:03;;;;;;;;;;;;;;;-9.51;43.24;96518.13;5005882;28;19933;-76
2024/01/09 06:52:29;;;;;;;;;;;;;;;-9.65;42.47;96520.16;5023013;28;20071;-77
2024/01/09 06:54:54;;;;;;;;;;;;;;;-9.71;42.36;96521.97;5021411;28;20040;-77
2024/01/09 06:57:19;;;;;;;;;;;;;;;-9.66;41.21;96519.31;5018850;28;19954;-77
2024/01/09 06:59:44;;;;;;;;;;;;;;;-9.67;41.83;96517.59;5022382;28;19988;-76
2024/01/09 07:02:10;;;;;;;;;;;;;;;-9.37;40.53;96525.63;5021293;28;19940;-77
2024/01/09 07:04:35;;;;;;;;;;;;;;;-9.60;42.27;96523.50;5020943;28;19953;-78
2024/01/09 07:07:00;;;;;;;;;;;;;;;-9.70;41.10;96520.25;5019182;28;20344;-76
2024/01/09 07:09:25;;;;;;;;;;;;;;;-9.75;41.04;96516.91;5020239;28;19925;-78
2024/01/09 07:11:51;;;;;;;;;;;;;;;-9.69;40.03;96515.94;5015807;28;20597;-78
2024/01/09 07:14:16;;;;;;;;;;;;;;;-9.67;41.50;96525.34;5018301;28;20038;-77
2024/01/09 07:16:41;;;;;;;;;;;;;;;-9.76;41.93;96523.78;5014958;28;19975;-77
2024/01/09 07:19:06;;;;;;;;;;;;;;;-9.78;42.99;96524.69;5018662;28;19955;-77
2024/01/09 07:21:32;;;;;;;;;;;;;;;-9.77;41.61;96524.69;4997898;28;20044;-77
2024/01/09 07:23:57;;;;;;;;;;;;;;;-9.78;41.53;96519.53;5016497;28;20022;-77
2024/01/09 07:26:22;;;;;;;;;;;;;;;-9.80;41.63;96524.72;4998360;28;20524;-74
2024/01/09 07:28:47;;;;;;;;;;;;;;;-9.87;41.66;96523.13;5017152;28;19952;-75
2024/01/09 07:31:13;;;;;;;;;;;;;;;-9.95;41.10;96525.03;5023445;28;19961;-75
2024/01/09 07:33:38;;;;;;;;;;;;;;;-9.94;41.03;96518.97;5021904;28;19952;-75
2024/01/09 07:36:03;;;;;;;;;;;;;;;-9.84;40.60;96520.50;5014213;28;21036;-75
2024/01/09 07:38:29;;;;;;;;;;;;;;;-9.78;43.05;96525.56;5017044;28;20220;-75
2024/01/09 07:40:54;;;;;;;;;;;;;;;-9.84;41.08;96528.25;5019100;28;20013;-75
2024/01/09 07:43:19;;;;;;;;;;;;;;;-9.71;42.12;96523.72;5010143;28;19965;-75
2024/01/09 07:45:44;;;;;;;;;;;;;;;-9.72;40.53;96530.59;5021040;28;19932;-75
2024/01/09 07:48:10;;;;;;;;;;;;;;;-9.73;42.10;96526.31;5015326;28;20057;-75
2024/01/09 07:50:35;;;;;;;;;;;;;;;-9.85;41.05;96516.25;5021173;28;19971;-75
2024/01/09 07:53:00;;;;;;;;;;;;;;;-9.72;42.61;96520.28;5019907;28;19955;-75
2024/01/09 07:55:25;;;;;;;;;;;;;;;-9.48;41.87;96530.97;5017370;28;20371;-75
2024/01/09 07:57:50;;;;;;;;;;;;;;;-9.77;41.71;96532.41;5015899;28;20461;-75
2024/01/09 08:00:16;;;;;;;;;;;;;;;-9.58;40.50;96537.22;5012132;28;19963;-75
2024/01/09 08:02:41;;;;;;;;;;;;;;;-9.64;42.62;96537.31;5020334;28;19986;-75
2024/01/09 08:05:06;;;;;;;;;;;;;;;-9.54;41.29;96543.16;5015423;28;19952;-75
2024/01/09 08:07:32;;;;;;;;;;;;;;;-9.51;39.49;96543.91;5019678;28;20415;-74
2024/01/09 08:09:57;;;;;;;;;;;;;;;-9.51;40.06;96537.94;5020063;28;19952;-75
2024/01/09 08:12:22;;;;;;;;;;;;;;;-9.37;40.51;96550.53;5014352;28;19962;-75
2024/01/09 08:14:49;;;;;;;;;;;;;;;-9.25;40.45;96560.59;5019374;28;19999;-75
2024/01/09 08:17:14;;;;;;;;;;;;;;;-9.16;39.88;96556.13;5014188;28;20164;-75
2024/01/09 08:19:39;;;;;;;;;;;;;;;-9.10;41.35;96559.41;5017722;28;20543;-75
2024/01/09 08:22:04;;;;;;;;;;;;;;;-9.14;39.72;96559.53;5018078;28;20242;-75
2024/01/09 08:24:31;;;;;;;;;;;;;;;-9.09;39.91;96565.44;5017002;28;20048;-75
2024/01/09 08:26:57;;;;;;;;;;;;;;;-8.75;37.32;96558.69;5016043;28;19947;-75
2024/01/09 08:29:26;;;;;;;;;;;;;;;-8.82;36.60;96557.97;5017333;28;19967;-75
2024/01/09 08:31:52;;;;;;;;;;;;;;;-8.65;36.33;96565.34;5022088;28;20339;-75
2024/01/09 08:34:17;;;;;;;;;;;;;;;-8.81;36.24;96564.84;5017385;28;20289;-75
2024/01/09 08:36:43;;;;;;;;;;;;;;;-8.73;36.53;96570.66;5017467;28;20387;-75
2024/01/09 08:39:11;;;;;;;;;;;;;;;-8.58;36.01;96574.66;5017530;28;19932;-75
2024/01/09 08:41:36;;;;;;;;;;;;;;;-8.58;36.14;96584.13;4996114;28;20704;-76
2024/01/09 08:44:02;;;;;;;;;;;;;;;-8.54;35.94;96570.25;5000545;28;19925;-75
2024/01/09 08:46:27;;;;;;;;;;;;;;;-8.39;35.51;96573.38;4994434;28;19935;-75
2024/01/09 08:48:52;;;;;;;;;;;;;;;-8.22;36.05;96572.97;4986273;28;20062;-75
2024/01/09 08:51:18;;;;;;;;;;;;;;;-8.18;36.42;96574.59;4992468;28;20564;-75
2024/01/09 08:53:43;;;;;;;;;;;;;;;-8.10;35.51;96576.97;5021289;28;20440;-75
2024/01/09 08:56:08;;;;;;;;;;;;;;;-8.06;35.61;96563.94;5015612;28;19928;-75
2024/01/09 08:58:33;;;;;;;;;;;;;;;-8.01;35.21;96563.81;5024450;28;20337;-75
2024/01/09 09:00:59;;;;;;;;;;;;;;;-7.98;34.73;96568.06;5020106;28;20027;-76
2024/01/09 09:03:24;;;;;;;;;;;;;;;-7.69;34.33;96563.84;5019395;28;19955;-75
2024/01/09 09:05:49;;;;;;;;;;;;;;;-7.82;34.96;96569.34;5018390;28;20171;-74
2024/01/09 09:08:14;;;;;;;;;;;;;;;-7.88;38.84;96563.50;5007264;28;20382;-74
2024/01/09 09:10:40;;;;;;;;;;;;;;;-7.78;40.81;96570.13;5000716;28;20261;-74
2024/01/09 09:13:06;;;;;;;;;;;;;;;-7.75;40.02;96564.03;4996876;28;20051;-76
2024/01/09 09:15:31;;;;;;;;;;;;;;;-7.56;38.10;96564.38;5002087;28;19959;-75
2024/01/09 09:17:56;;;;;;;;;;;;;;;-7.48;37.58;96566.75;5018923;28;19929;-75
2024/01/09 09:20:22;;;;;;;;;;;;;;;-7.16;37.76;96568.44;5017634;28;20047;-75
2024/01/09 09:22:47;;;;;;;;;;;;;;;-7.17;37.80;96579.66;5015705;28;19925;-75
2024/01/09 09:25:13;;;;;;;;;;;;;;;-7.06;36.23;96576.78;5021589;28;19921;-75
2024/01/09 09:27:40;;;;;;;;;;;;;;;-6.84;39.85;96577.88;5016622;28;19925;-75
2024/01/09 09:30:06;;;;;;;;;;;;;;;-6.83;38.33;96572.63;5016919;28;20537;-75
2024/01/09 09:32:32;;;;;;;;;;;;;;;-6.76;36.62;96573.34;5015704;28;20267;-75
2024/01/09 09:34:57;;;;;;;;;;;;;;;-6.60;39.46;96578.88;5015096;28;20413;-75
2024/01/09 09:37:23;;;;;;;;;;;;;;;-6.38;37.13;96570.44;5009679;28;19959;-75
2024/01/09 09:39:48;;;;;;;;;;;;;;;-6.45;37.94;96576.69;5020232;28;20009;-75
2024/01/09 09:42:13;;;;;;;;;;;;;;;-6.38;37.14;96581.63;5022386;28;19932;-74
2024/01/09 09:44:39;;;;;;;;;;;;;;;-6.36;37.61;96577.25;5022867;28;19924;-74
2024/01/09 09:47:05;;;;;;;;;;;;;;;-6.08;40.72;96577.25;5018888;28;19928;-74
2024/01/09 09:49:30;;;;;;;;;;;;;;;-6.12;38.58;96569.56;5020933;28;19952;-74
2024/01/09 09:51:55;;;;;;;;;;;;;;;-5.92;40.45;96573.25;5020678;28;20374;-74
2024/01/09 09:54:23;;;;;;;;;;;;;;;-6.10;37.00;96577.31;5017542;28;21660;-74
2024/01/09 09:56:48;;;;;;;;;;;;;;;-5.82;39.96;96571.19;5020974;28;20198;-74
2024/01/09 09:59:14;;;;;;;;;;;;;;;-5.79;38.95;96565.91;5021232;28;20043;-74
2024/01/09 10:01:40;;;;;;;;;;;;;;;-5.56;37.35;96563.41;5016267;28;20333;-73
2024/01/09 10:04:14;;;;;;;;;;;;;;;-5.65;37.56;96570.63;4993444;28;19925;-74
2024/01/09 10:06:39;;;;;;;;;;;;;;;-5.25;40.29;96570.94;5021902;28;20545;-74
2024/01/09 10:09:05;;;;;;;;;;;;;;;-5.19;41.23;96575.06;5016218;28;20148;-74
2024/01/09 10:11:32;;;;;;;;;;;;;;;-5.31;40.31;96575.53;5018407;28;19964;-73
2024/01/09 10:13:57;;;;;;;;;;;;;;;-5.09;38.64;96576.41;5016198;28;19967;-73
2024/01/09 10:16:22;;;;;;;;;;;;;;;-4.95;35.34;96564.69;5016405;28;19933;-73
2024/01/09 10:18:47;;;;;;;;;;;;;;;-4.90;37.19;96570.53;5019243;28;19990;-74
2024/01/09 10:21:13;;;;;;;;;;;;;;;-4.79;35.75;96566.69;5020970;28;20046;-73
2024/01/09 10:23:39;;;;;;;;;;;;;;;-4.73;34.72;96566.44;5020357;28;20386;-73
2024/01/09 10:26:07;;;;;;;;;;;;;;;-4.65;42.62;96567.00;5019815;28;19924;-74
2024/01/09 10:28:33;;;;;;;;;;;;;;;-4.72;37.15;96574.19;5017680;28;20382;-74
2024/01/09 10:30:58;;;;;;;;;;;;;;;-4.35;42.00;96566.69;5017677;28;19928;-74
2024/01/09 10:33:23;;;;;;;;;;;;;;;-4.30;36.35;96559.56;5025464;28;19931;-74
2024/01/09 10:35:49;;;;;;;;;;;;;;;-4.33;40.01;96570.09;5014722;28;19929;-74
2024/01/09 10:38:14;;;;;;;;;;;;;;;-4.30;33.51;96546.56;5016328;28;19936;-74
2024/01/09 10:40:39;;;;;;;;;;;;;;;-4.10;36.30;96559.66;5016948;28;20128;-74
2024/01/09 10:43:04;;;;;;;;;;;;;;;-3.82;44.33;96556.75;5015539;28;19968;-74
2024/01/09 10:45:30;;;;;;;;;;;;;;;-3.89;36.72;96551.84;5018250;28;19960;-74
2024/01/09 10:47:55;;;;;;;;;;;;;;;-3.81;38.32;96555.84;5016851;28;20770;-74
2024/01/09 10:50:21;;;;;;;;;;;;;;;-3.82;36.48;96548.09;5018783;28;20386;-74
2024/01/09 10:52:47;;;;;;;;;;;;;;;-3.70;34.79;96547.56;5017375;28;19935;-74
2024/01/09 10:55:12;;;;;;;;;;;;;;;-3.65;38.96;96552.56;5012925;28;19925;-74
2024/01/09 10:57:37;;;;;;;;;;;;;;;-3.77;36.14;96540.91;5009041;28;19928;-74
2024/01/09 11:00:08;;;;;;;;;;;;;;;-3.59;35.92;96549.72;5017390;28;19957;-74
2024/01/09 11:02:36;;;;;;;;;;;;;;;-3.57;38.05;96544.44;5022039;28;20360;-74
2024/01/09 11:05:01;;;;;;;;;;;;;;;-3.48;39.91;96537.97;5020732;28;19925;-74
2024/01/09 11:07:26;;;;;;;;;;;;;;;-3.33;34.78;96539.91;5019517;28;19932;-74
2024/01/09 11:09:52;;;;;;;;;;;;;;;-3.23;37.97;96537.72;5013603;28;20349;-75
2024/01/09 11:12:17;;;;;;;;;;;;;;;-3.26;34.38;96532.66;5003053;28;19925;-74
2024/01/09 11:14:43;;;;;;;;;;;;;;;-3.11;33.04;96528.53;5014880;28;20029;-75
2024/01/09 11:17:08;;;;;;;;;;;;;;;-3.19;30.14;96525.44;5018019;28;20466;-75
2024/01/09 11:19:33;;;;;;;;;;;;;;;-3.16;41.84;96530.50;5016051;28;19924;-76
2024/01/09 11:22:11;;;;;;;;;;;;;;;-2.84;35.35;96522.09;5015223;28;20626;-74
2024/01/09 11:24:36;;;;;;;;;;;;;;;-2.58;38.51;96518.25;5022074;28;19925;-74
2024/01/09 11:27:11;;;;;;;;;;;;;;;-2.58;33.89;96520.84;5015108;28;20614;-73
2024/01/09 11:29:56;;;;;;;;;;;;;;;-2.66;38.82;96513.41;5018363;28;19951;-73
2024/01/09 11:32:25;;;;;;;;;;;;;;;-2.54;40.40;96517.19;5015135;28;20211;-74
2024/01/09 11:35:12;;;;;;;;;;;;;;;-2.59;37.12;96513.97;5020817;28;19925;-74
2024/01/09 11:37:39;;;;;;;;;;;;;;;-2.53;38.33;96508.47;5013277;28;20031;-73
2024/01/09 11:40:06;;;;;;;;;;;;;;;-2.85;32.73;96495.19;5023128;28;20295;-74
2024/01/09 11:42:31;;;;;;;;;;;;;;;-2.55;37.59;96494.63;5014356;28;20382;-74
2024/01/09 11:44:57;;;;;;;;;;;;;;;-2.55;36.45;96501.63;5014185;28;19991;-74
2024/01/09 11:47:22;;;;;;;;;;;;;;;-2.45;35.49;96486.38;5012080;28;20668;-75
2024/01/09 11:49:47;;;;;;;;;;;;;;;-2.24;37.38;96492.31;5015994;28;20039;-74
2024/01/09 11:52:12;;;;;;;;;;;;;;;-2.31;33.64;96491.75;5022891;28;20251;-74
2024/01/09 11:54:38;;;;;;;;;;;;;;;-1.64;35.01;96490.16;4997543;28;20386;-74
2024/01/09 11:57:04;;;;;;;;;;;;;;;-0.61;41.03;96485.56;5008973;28;20218;-74
2024/01/09 11:59:32;;;;;;;;;;;;;;;1.56;34.15;96492.78;5016852;28;19925;-74
2024/01/09 12:01:57;;;;;;;;;;;;;;;3.73;40.81;96485.91;5006188;28;19921;-75
2024/01/09 12:04:23;;;;;;;;;;;;;;;5.90;25.47;96483.28;5017622;28;20595;-75
2024/01/09 12:06:48;;;;;;;;;;;;;;;7.13;28.62;96488.00;5017348;28;20297;-75
2024/01/09 12:09:13;;;;;;;;;;;;;;;8.93;30.12;96486.00;5017517;28;19928;-75
2024/01/09 12:11:39;;;;;;;;;;;;;;;9.94;22.09;96483.47;5024555;28;19935;-75
2024/01/09 12:14:05;;;;;;;;;;;;;;;10.62;19.54;96471.34;5019557;28;19925;-75
2024/01/09 12:16:30;;;;;;;;;;;;;;;11.86;29.11;96478.13;5021554;28;20489;-75
2024/01/09 12:18:56;;;;;;;;;;;;;;;12.95;21.38;96470.88;5016436;28;19924;-75
2024/01/09 12:21:31;;;;;;;;;;;;;;;13.81;19.79;96469.31;5021476;28;19956;-75
2024/01/09 12:23:59;;;;;;;;;;;;;;;14.51;23.00;96469.25;5021036;28;20365;-75
2024/01/09 12:26:24;;;;;;;;;;;;;;;15.39;22.30;96467.78;5021213;28;19940;-74
2024/01/09 12:28:50;;;;;;;;;;;;;;;16.48;19.13;96462.50;5022798;28;20493;-76
2024/01/09 12:31:16;;;;;;;;;;;;;;;16.90;18.24;96465.25;5019445;28;19936;-75
2024/01/09 12:33:41;;;;;;;;;;;;;;;17.65;18.74;96460.22;5019447;28;19917;-75
2024/01/09 12:36:06;;;;;;;;;;;;;;;18.60;21.67;96460.38;5016036;28;19987;-75
2024/01/09 12:38:32;;;;;;;;;;;;;;;17.64;20.52;96466.66;5018066;28;19960;-75